sensor_id;sensor_type;location;lat;lon;timestamp;pressure;altitude;pressure_sealevel;temperature;humidity
62694;BME280;48759;52.544;13.418;2022-10-31T00:02:19;101206.97;;;15.11;100.00
62694;BME280;48759;52.544;13.418;2022-10-31T00:04:46;101204.16;;;14.86;100.00
62694;BME280;48759;52.544;13.418;2022-10-31T00:07:12;101198.72;;;14.67;100.00
62694;BME280;48759;52.544;13.418;2022-10-31T00:09:40;101204.81;;;15.13;100.00
62694;BME280;48759;52.544;13.418;2022-10-31T00:12:06;101203.09;;;15.44;100.00
62694;BME280;48759;52.544;13.418;2022-10-31T00:14:35;101214.19;;;15.44;100.00
62694;BME280;48759;52.544;13.418;2022-10-31T00:17:02;101211.47;;;15.37;100.00
62694;BME280;48759;52.544;13.418;2022-10-31T00:19:28;101220.84;;;15.43;100.00
62694;BME280;48759;52.544;13.418;2022-10-31T00:21:55;101221.28;;;15.40;100.00
62694;BME280;48759;52.544;13.418;2022-10-31T00:24:21;101217.03;;;14.74;100.00
62694;BME280;48759;52.544;13.418;2022-10-31T00:26:49;101229.00;;;15.31;100.00
62694;BME280;48759;52.544;13.418;2022-10-31T00:29:15;101222.81;;;15.36;100.00
62694;BME280;48759;52.544;13.418;2022-10-31T00:31:42;101227.22;;;15.43;100.00
62694;BME280;48759;52.544;13.418;2022-10-31T00:34:08;101225.00;;;15.20;100.00
62694;BME280;48759;52.544;13.418;2022-10-31T00:36:35;101217.91;;;15.31;100.00
62694;BME280;48759;52.544;13.418;2022-10-31T00:39:01;101227.91;;;15.39;100.00
62694;BME280;48759;52.544;13.418;2022-10-31T00:41:28;101224.75;;;15.28;100.00
62694;BME280;48759;52.544;13.418;2022-10-31T00:43:56;101219.19;;;15.28;100.00
62694;BME280;48759;52.544;13.418;2022-10-31T00:46:22;101219.47;;;15.20;100.00
62694;BME280;48759;52.544;13.418;2022-10-31T00:48:49;101225.44;;;14.92;100.00
62694;BME280;48759;52.544;13.418;2022-10-31T00:51:15;101236.09;;;15.20;100.00
62694;BME280;48759;52.544;13.418;2022-10-31T00:53:42;101227.75;;;14.58;100.00
62694;BME280;48759;52.544;13.418;2022-10-31T00:56:08;101224.91;;;14.20;100.00
62694;BME280;48759;52.544;13.418;2022-10-31T00:58:34;101227.06;;;14.24;100.00
62694;BME280;48759;52.544;13.418;2022-10-31T01:01:03;101238.16;;;14.11;100.00
62694;BME280;48759;52.544;13.418;2022-10-31T01:03:31;101244.88;;;14.41;100.00
62694;BME280;48759;52.544;13.418;2022-10-31T01:05:59;101236.47;;;14.68;100.00
62694;BME280;48759;52.544;13.418;2022-10-31T01:08:26;101240.38;;;14.91;100.00
62694;BME280;48759;52.544;13.418;2022-10-31T01:11:05;101247.13;;;15.02;100.00
62694;BME280;48759;52.544;13.418;2022-10-31T01:13:33;101245.59;;;15.06;100.00
62694;BME280;48759;52.544;13.418;2022-10-31T01:16:00;101244.38;;;15.02;100.00
62694;BME280;48759;52.544;13.418;2022-10-31T01:18:28;101247.13;;;15.02;100.00
62694;BME280;48759;52.544;13.418;2022-10-31T01:20:59;101242.97;;;15.18;100.00
62694;BME280;48759;52.544;13.418;2022-10-31T01:23:26;101251.34;;;15.05;100.00
62694;BME280;48759;52.544;13.418;2022-10-31T01:26:00;101257.06;;;15.16;100.00
62694;BME280;48759;52.544;13.418;2022-10-31T01:28:27;101241.75;;;14.76;100.00
62694;BME280;48759;52.544;13.418;2022-10-31T01:30:53;101248.47;;;14.93;100.00
62694;BME280;48759;52.544;13.418;2022-10-31T01:33:20;101240.59;;;15.21;100.00
62694;BME280;48759;52.544;13.418;2022-10-31T01:35:48;101250.25;;;15.12;100.00
62694;BME280;48759;52.544;13.418;2022-10-31T01:38:14;101241.38;;;15.28;100.00
62694;BME280;48759;52.544;13.418;2022-10-31T01:40:40;101253.72;;;15.33;100.00
62694;BME280;48759;52.544;13.418;2022-10-31T01:43:10;101252.25;;;15.30;100.00
62694;BME280;48759;52.544;13.418;2022-10-31T01:45:38;101256.34;;;15.27;100.00
62694;BME280;48759;52.544;13.418;2022-10-31T01:48:04;101257.50;;;15.13;100.00
62694;BME280;48759;52.544;13.418;2022-10-31T01:50:34;101243.63;;;15.13;100.00
62694;BME280;48759;52.544;13.418;2022-10-31T01:53:07;101242.88;;;15.00;100.00
62694;BME280;48759;52.544;13.418;2022-10-31T01:55:37;101241.53;;;15.09;100.00
62694;BME280;48759;52.544;13.418;2022-10-31T01:58:08;101262.50;;;14.98;100.00
62694;BME280;48759;52.544;13.418;2022-10-31T02:00:36;101254.44;;;14.90;100.00
62694;BME280;48759;52.544;13.418;2022-10-31T02:03:03;101260.75;;;14.66;100.00
62694;BME280;48759;52.544;13.418;2022-10-31T02:05:30;101258.38;;;14.76;100.00
62694;BME280;48759;52.544;13.418;2022-10-31T02:07:59;101260.75;;;13.95;100.00
62694;BME280;48759;52.544;13.418;2022-10-31T02:10:30;101248.78;;;14.21;100.00
62694;BME280;48759;52.544;13.418;2022-10-31T02:12:58;101260.72;;;14.79;100.00
62694;BME280;48759;52.544;13.418;2022-10-31T02:15:28;101264.97;;;15.13;100.00
62694;BME280;48759;52.544;13.418;2022-10-31T02:17:54;101261.88;;;14.96;100.00
62694;BME280;48759;52.544;13.418;2022-10-31T02:20:23;101263.94;;;15.07;100.00
62694;BME280;48759;52.544;13.418;2022-10-31T02:23:20;101258.19;;;15.09;100.00
62694;BME280;48759;52.544;13.418;2022-10-31T02:26:11;101259.38;;;15.19;100.00
62694;BME280;48759;52.544;13.418;2022-10-31T02:31:46;101259.72;;;15.29;100.00
62694;BME280;48759;52.544;13.418;2022-10-31T02:34:21;101250.59;;;15.22;100.00
62694;BME280;48759;52.544;13.418;2022-10-31T02:36:53;101253.66;;;15.14;100.00
62694;BME280;48759;52.544;13.418;2022-10-31T02:39:24;101252.16;;;15.18;100.00
62694;BME280;48759;52.544;13.418;2022-10-31T02:42:00;101260.25;;;15.13;100.00
62694;BME280;48759;52.544;13.418;2022-10-31T02:44:30;101263.94;;;15.07;100.00
62694;BME280;48759;52.544;13.418;2022-10-31T02:47:03;101259.97;;;14.90;100.00
62694;BME280;48759;52.544;13.418;2022-10-31T02:49:35;101258.44;;;14.63;100.00
62694;BME280;48759;52.544;13.418;2022-10-31T02:52:13;101257.13;;;14.65;100.00
62694;BME280;48759;52.544;13.418;2022-10-31T02:54:40;101253.19;;;14.86;100.00
62694;BME280;48759;52.544;13.418;2022-10-31T02:57:07;101265.78;;;14.82;100.00
62694;BME280;48759;52.544;13.418;2022-10-31T02:59:35;101267.94;;;15.18;100.00
62694;BME280;48759;52.544;13.418;2022-10-31T03:02:12;101264.19;;;14.99;100.00
62694;BME280;48759;52.544;13.418;2022-10-31T03:05:08;101273.53;;;15.05;100.00
62694;BME280;48759;52.544;13.418;2022-10-31T03:07:42;101279.25;;;15.48;100.00
62694;BME280;48759;52.544;13.418;2022-10-31T03:10:17;101271.88;;;14.97;100.00
62694;BME280;48759;52.544;13.418;2022-10-31T03:12:56;101272.34;;;14.94;100.00
62694;BME280;48759;52.544;13.418;2022-10-31T03:15:28;101279.13;;;14.98;100.00
62694;BME280;48759;52.544;13.418;2022-10-31T03:18:00;101280.91;;;14.86;100.00
62694;BME280;48759;52.544;13.418;2022-10-31T03:20:34;101275.28;;;14.99;100.00
62694;BME280;48759;52.544;13.418;2022-10-31T03:23:03;101283.53;;;15.44;100.00
62694;BME280;48759;52.544;13.418;2022-10-31T03:25:31;101288.28;;;15.37;100.00
62694;BME280;48759;52.544;13.418;2022-10-31T03:27:59;101290.50;;;15.21;100.00
62694;BME280;48759;52.544;13.418;2022-10-31T03:30:28;101299.88;;;15.20;100.00
62694;BME280;48759;52.544;13.418;2022-10-31T03:32:57;101300.88;;;15.33;100.00
62694;BME280;48759;52.544;13.418;2022-10-31T03:35:27;101298.63;;;15.54;100.00
62694;BME280;48759;52.544;13.418;2022-10-31T03:37:55;101296.41;;;15.31;100.00
62694;BME280;48759;52.544;13.418;2022-10-31T03:40:23;101314.94;;;15.38;100.00
62694;BME280;48759;52.544;13.418;2022-10-31T03:42:55;101312.03;;;14.88;100.00
62694;BME280;48759;52.544;13.418;2022-10-31T03:45:24;101320.94;;;15.28;100.00
62694;BME280;48759;52.544;13.418;2022-10-31T03:47:52;101315.41;;;15.35;100.00
62694;BME280;48759;52.544;13.418;2022-10-31T03:50:24;101320.22;;;14.70;100.00
62694;BME280;48759;52.544;13.418;2022-10-31T03:52:55;101322.88;;;14.96;100.00
62694;BME280;48759;52.544;13.418;2022-10-31T03:55:26;101320.50;;;15.00;100.00
62694;BME280;48759;52.544;13.418;2022-10-31T03:57:58;101326.28;;;15.29;100.00
62694;BME280;48759;52.544;13.418;2022-10-31T04:00:26;101325.22;;;15.30;100.00
62694;BME280;48759;52.544;13.418;2022-10-31T04:02:57;101320.53;;;14.93;100.00
62694;BME280;48759;52.544;13.418;2022-10-31T04:05:26;101319.25;;;14.96;100.00
62694;BME280;48759;52.544;13.418;2022-10-31T04:07:55;101313.34;;;14.79;100.00
62694;BME280;48759;52.544;13.418;2022-10-31T04:10:24;101319.09;;;14.84;100.00
62694;BME280;48759;52.544;13.418;2022-10-31T04:12:56;101316.69;;;14.94;100.00
62694;BME280;48759;52.544;13.418;2022-10-31T04:15:24;101324.25;;;14.67;100.00
62694;BME280;48759;52.544;13.418;2022-10-31T04:17:53;101329.03;;;14.98;100.00
62694;BME280;48759;52.544;13.418;2022-10-31T04:20:31;101323.16;;;14.75;100.00
62694;BME280;48759;52.544;13.418;2022-10-31T04:22:58;101329.78;;;14.80;100.00
62694;BME280;48759;52.544;13.418;2022-10-31T04:25:25;101323.00;;;14.70;100.00
62694;BME280;48759;52.544;13.418;2022-10-31T04:27:51;101337.94;;;15.07;100.00
62694;BME280;48759;52.544;13.418;2022-10-31T04:30:18;101341.16;;;14.46;100.00
62694;BME280;48759;52.544;13.418;2022-10-31T04:32:44;101330.94;;;14.40;100.00
62694;BME280;48759;52.544;13.418;2022-10-31T04:35:11;101333.91;;;14.45;100.00
62694;BME280;48759;52.544;13.418;2022-10-31T04:37:38;101339.72;;;14.24;100.00
62694;BME280;48759;52.544;13.418;2022-10-31T04:40:06;101331.44;;;13.97;100.00
62694;BME280;48759;52.544;13.418;2022-10-31T04:42:32;101329.25;;;13.33;100.00
62694;BME280;48759;52.544;13.418;2022-10-31T04:44:59;101337.19;;;13.83;100.00
62694;BME280;48759;52.544;13.418;2022-10-31T04:47:25;101338.66;;;14.05;100.00
62694;BME280;48759;52.544;13.418;2022-10-31T04:49:51;101348.03;;;14.17;100.00
62694;BME280;48759;52.544;13.418;2022-10-31T04:52:18;101356.72;;;14.27;100.00
62694;BME280;48759;52.544;13.418;2022-10-31T04:54:46;101350.16;;;14.22;100.00
62694;BME280;48759;52.544;13.418;2022-10-31T04:57:12;101348.47;;;14.01;100.00
62694;BME280;48759;52.544;13.418;2022-10-31T04:59:38;101341.25;;;14.00;100.00
62694;BME280;48759;52.544;13.418;2022-10-31T05:02:05;101339.28;;;14.13;100.00
62694;BME280;48759;52.544;13.418;2022-10-31T05:04:31;101340.38;;;13.99;100.00
62694;BME280;48759;52.544;13.418;2022-10-31T05:06:58;101346.34;;;14.09;100.00
62694;BME280;48759;52.544;13.418;2022-10-31T05:09:24;101353.16;;;13.94;100.00
62694;BME280;48759;52.544;13.418;2022-10-31T05:11:52;101342.94;;;13.88;100.00
62694;BME280;48759;52.544;13.418;2022-10-31T05:14:18;101348.50;;;13.94;100.00
62694;BME280;48759;52.544;13.418;2022-10-31T05:16:45;101346.75;;;14.13;100.00
62694;BME280;48759;52.544;13.418;2022-10-31T05:19:11;101349.75;;;13.65;100.00
62694;BME280;48759;52.544;13.418;2022-10-31T05:21:37;101352.28;;;14.06;100.00
62694;BME280;48759;52.544;13.418;2022-10-31T05:24:04;101360.59;;;12.93;100.00
62694;BME280;48759;52.544;13.418;2022-10-31T05:26:31;101350.31;;;13.34;100.00
62694;BME280;48759;52.544;13.418;2022-10-31T05:28:59;101356.28;;;12.77;100.00
62694;BME280;48759;52.544;13.418;2022-10-31T05:31:25;101355.38;;;13.18;100.00
62694;BME280;48759;52.544;13.418;2022-10-31T05:33:52;101355.50;;;13.77;100.00
62694;BME280;48759;52.544;13.418;2022-10-31T05:36:18;101360.19;;;12.96;100.00
62694;BME280;48759;52.544;13.418;2022-10-31T05:38:44;101361.19;;;13.49;100.00
62694;BME280;48759;52.544;13.418;2022-10-31T05:41:11;101361.88;;;13.97;100.00
62694;BME280;48759;52.544;13.418;2022-10-31T05:43:37;101368.50;;;14.09;100.00
62694;BME280;48759;52.544;13.418;2022-10-31T05:46:05;101370.13;;;14.43;100.00
62694;BME280;48759;52.544;13.418;2022-10-31T05:48:32;101372.72;;;14.18;100.00
62694;BME280;48759;52.544;13.418;2022-10-31T05:50:58;101363.16;;;14.08;100.00
62694;BME280;48759;52.544;13.418;2022-10-31T05:53:24;101365.06;;;13.88;100.00
62694;BME280;48759;52.544;13.418;2022-10-31T05:55:51;101364.22;;;14.07;100.00
62694;BME280;48759;52.544;13.418;2022-10-31T05:58:17;101361.66;;;13.99;100.00
62694;BME280;48759;52.544;13.418;2022-10-31T06:00:44;101368.91;;;13.93;100.00
62694;BME280;48759;52.544;13.418;2022-10-31T06:03:12;101371.88;;;14.05;100.00
62694;BME280;48759;52.544;13.418;2022-10-31T06:05:38;101377.00;;;14.01;100.00
62694;BME280;48759;52.544;13.418;2022-10-31T06:08:05;101375.31;;;13.94;100.00
62694;BME280;48759;52.544;13.418;2022-10-31T06:10:31;101372.94;;;13.64;100.00
62694;BME280;48759;52.544;13.418;2022-10-31T06:12:58;101379.13;;;13.86;100.00
62694;BME280;48759;52.544;13.418;2022-10-31T06:15:24;101381.88;;;13.79;100.00
62694;BME280;48759;52.544;13.418;2022-10-31T06:17:58;101381.19;;;14.43;100.00
62694;BME280;48759;52.544;13.418;2022-10-31T06:20:26;101385.47;;;14.26;100.00
62694;BME280;48759;52.544;13.418;2022-10-31T06:22:53;101388.47;;;14.51;100.00
62694;BME280;48759;52.544;13.418;2022-10-31T06:25:19;101391.88;;;14.33;100.00
62694;BME280;48759;52.544;13.418;2022-10-31T06:27:46;101391.00;;;14.26;100.00
62694;BME280;48759;52.544;13.418;2022-10-31T06:30:13;101382.91;;;14.51;100.00
62694;BME280;48759;52.544;13.418;2022-10-31T06:32:39;101388.47;;;14.38;100.00
62694;BME280;48759;52.544;13.418;2022-10-31T06:35:06;101390.41;;;14.24;100.00
62694;BME280;48759;52.544;13.418;2022-10-31T06:37:34;101396.78;;;14.05;100.00
62694;BME280;48759;52.544;13.418;2022-10-31T06:40:00;101397.41;;;14.40;100.00
62694;BME280;48759;52.544;13.418;2022-10-31T06:42:26;101405.75;;;13.94;100.00
62694;BME280;48759;52.544;13.418;2022-10-31T06:44:53;101397.63;;;14.38;100.00
62694;BME280;48759;52.544;13.418;2022-10-31T06:47:19;101401.69;;;14.23;100.00
62694;BME280;48759;52.544;13.418;2022-10-31T06:49:46;101404.44;;;13.96;100.00
62694;BME280;48759;52.544;13.418;2022-10-31T06:52:12;101405.09;;;14.11;100.00
62694;BME280;48759;52.544;13.418;2022-10-31T06:54:40;101420.84;;;14.50;100.00
62694;BME280;48759;52.544;13.418;2022-10-31T06:57:06;101415.75;;;14.21;100.00
62694;BME280;48759;52.544;13.418;2022-10-31T06:59:33;101415.72;;;14.28;100.00
62694;BME280;48759;52.544;13.418;2022-10-31T07:01:59;101427.22;;;14.58;100.00
62694;BME280;48759;52.544;13.418;2022-10-31T07:04:25;101433.63;;;14.65;100.00
62694;BME280;48759;52.544;13.418;2022-10-31T07:06:52;101431.59;;;14.98;100.00
62694;BME280;48759;52.544;13.418;2022-10-31T07:09:19;101437.44;;;15.28;100.00
62694;BME280;48759;52.544;13.418;2022-10-31T07:11:47;101443.84;;;15.73;100.00
62694;BME280;48759;52.544;13.418;2022-10-31T07:14:13;101435.09;;;15.31;100.00
62694;BME280;48759;52.544;13.418;2022-10-31T07:16:39;101438.59;;;15.07;100.00
62694;BME280;48759;52.544;13.418;2022-10-31T07:19:06;101434.41;;;14.85;100.00
62694;BME280;48759;52.544;13.418;2022-10-31T07:21:32;101443.75;;;14.97;100.00
62694;BME280;48759;52.544;13.418;2022-10-31T07:23:59;101439.41;;;15.14;100.00
62694;BME280;48759;52.544;13.418;2022-10-31T07:26:25;101432.47;;;15.50;100.00
62694;BME280;48759;52.544;13.418;2022-10-31T07:28:54;101438.53;;;15.34;100.00
62694;BME280;48759;52.544;13.418;2022-10-31T07:31:20;101438.09;;;15.75;100.00
62694;BME280;48759;52.544;13.418;2022-10-31T07:33:47;101438.44;;;15.47;100.00
62694;BME280;48759;52.544;13.418;2022-10-31T07:36:13;101446.19;;;15.31;100.00
62694;BME280;48759;52.544;13.418;2022-10-31T07:38:40;101445.34;;;15.69;100.00
62694;BME280;48759;52.544;13.418;2022-10-31T07:41:07;101449.81;;;14.68;100.00
62694;BME280;48759;52.544;13.418;2022-10-31T07:43:56;101450.81;;;15.51;100.00
62694;BME280;48759;52.544;13.418;2022-10-31T07:46:22;101468.13;;;15.46;100.00
62694;BME280;48759;52.544;13.418;2022-10-31T07:48:55;101461.75;;;15.77;100.00
62694;BME280;48759;52.544;13.418;2022-10-31T07:51:22;101466.38;;;15.90;100.00
62694;BME280;48759;52.544;13.418;2022-10-31T07:53:53;101458.88;;;15.59;100.00
62694;BME280;48759;52.544;13.418;2022-10-31T07:56:21;101467.00;;;15.54;100.00
62694;BME280;48759;52.544;13.418;2022-10-31T07:58:48;101468.38;;;16.07;100.00
62694;BME280;48759;52.544;13.418;2022-10-31T08:01:15;101480.06;;;15.85;100.00
62694;BME280;48759;52.544;13.418;2022-10-31T08:03:42;101477.75;;;15.30;100.00
62694;BME280;48759;52.544;13.418;2022-10-31T08:06:08;101478.22;;;15.27;100.00
62694;BME280;48759;52.544;13.418;2022-10-31T08:08:35;101478.34;;;15.90;100.00
62694;BME280;48759;52.544;13.418;2022-10-31T08:11:02;101481.00;;;15.72;100.00
62694;BME280;48759;52.544;13.418;2022-10-31T08:13:29;101478.91;;;15.61;100.00
62694;BME280;48759;52.544;13.418;2022-10-31T08:15:57;101481.81;;;15.79;100.00
62694;BME280;48759;52.544;13.418;2022-10-31T08:18:30;101486.13;;;16.38;100.00
62694;BME280;48759;52.544;13.418;2022-10-31T08:20:56;101480.66;;;16.25;100.00
62694;BME280;48759;52.544;13.418;2022-10-31T08:23:23;101478.78;;;15.87;100.00
62694;BME280;48759;52.544;13.418;2022-10-31T08:25:49;101475.53;;;16.28;100.00
62694;BME280;48759;52.544;13.418;2022-10-31T08:28:16;101488.44;;;16.10;100.00
62694;BME280;48759;52.544;13.418;2022-10-31T08:30:42;101483.28;;;16.20;100.00
62694;BME280;48759;52.544;13.418;2022-10-31T08:33:10;101493.38;;;16.39;100.00
62694;BME280;48759;52.544;13.418;2022-10-31T08:35:38;101500.72;;;15.95;100.00
62694;BME280;48759;52.544;13.418;2022-10-31T08:38:06;101495.22;;;15.51;100.00
62694;BME280;48759;52.544;13.418;2022-10-31T08:40:33;101492.44;;;15.51;100.00
62694;BME280;48759;52.544;13.418;2022-10-31T08:43:01;101491.91;;;16.36;100.00
62694;BME280;48759;52.544;13.418;2022-10-31T08:45:29;101490.56;;;16.14;100.00
62694;BME280;48759;52.544;13.418;2022-10-31T08:47:57;101484.13;;;15.44;100.00
62694;BME280;48759;52.544;13.418;2022-10-31T08:50:24;101487.63;;;16.02;100.00
62694;BME280;48759;52.544;13.418;2022-10-31T08:52:52;101487.25;;;16.55;100.00
62694;BME280;48759;52.544;13.418;2022-10-31T08:55:19;101486.06;;;16.69;100.00
62694;BME280;48759;52.544;13.418;2022-10-31T08:57:45;101482.94;;;16.77;100.00
62694;BME280;48759;52.544;13.418;2022-10-31T09:00:12;101474.22;;;17.17;100.00
62694;BME280;48759;52.544;13.418;2022-10-31T09:02:39;101495.69;;;17.10;100.00
62694;BME280;48759;52.544;13.418;2022-10-31T09:05:06;101492.25;;;16.90;100.00
62694;BME280;48759;52.544;13.418;2022-10-31T09:07:32;101490.78;;;16.87;100.00
62694;BME280;48759;52.544;13.418;2022-10-31T09:10:00;101486.91;;;17.31;100.00
62694;BME280;48759;52.544;13.418;2022-10-31T09:12:27;101494.38;;;17.12;100.00
62694;BME280;48759;52.544;13.418;2022-10-31T09:14:53;101495.34;;;16.32;100.00
62694;BME280;48759;52.544;13.418;2022-10-31T09:17:20;101499.41;;;16.79;100.00
62694;BME280;48759;52.544;13.418;2022-10-31T09:19:46;101510.22;;;16.69;100.00
62694;BME280;48759;52.544;13.418;2022-10-31T09:22:12;101503.69;;;16.32;100.00
62694;BME280;48759;52.544;13.418;2022-10-31T09:24:40;101502.03;;;17.17;100.00
62694;BME280;48759;52.544;13.418;2022-10-31T09:27:07;101507.22;;;17.13;100.00
62694;BME280;48759;52.544;13.418;2022-10-31T09:29:34;101503.75;;;16.93;100.00
62694;BME280;48759;52.544;13.418;2022-10-31T09:32:01;101512.06;;;17.18;100.00
62694;BME280;48759;52.544;13.418;2022-10-31T09:34:27;101509.94;;;17.38;100.00
62694;BME280;48759;52.544;13.418;2022-10-31T09:36:54;101518.25;;;17.02;100.00
62694;BME280;48759;52.544;13.418;2022-10-31T09:39:20;101510.38;;;17.35;100.00
62694;BME280;48759;52.544;13.418;2022-10-31T09:41:59;101516.09;;;17.04;100.00
62694;BME280;48759;52.544;13.418;2022-10-31T09:44:38;101522.72;;;17.03;100.00
62694;BME280;48759;52.544;13.418;2022-10-31T09:47:14;101523.22;;;17.36;100.00
62694;BME280;48759;52.544;13.418;2022-10-31T09:49:57;101534.31;;;17.18;100.00
62694;BME280;48759;52.544;13.418;2022-10-31T09:52:29;101532.56;;;17.42;100.00
62694;BME280;48759;52.544;13.418;2022-10-31T09:55:00;101523.03;;;17.49;100.00
62694;BME280;48759;52.544;13.418;2022-10-31T09:57:32;101532.41;;;17.55;100.00
62694;BME280;48759;52.544;13.418;2022-10-31T10:00:01;101533.53;;;18.02;100.00
62694;BME280;48759;52.544;13.418;2022-10-31T10:02:34;101521.16;;;17.80;100.00
62694;BME280;48759;52.544;13.418;2022-10-31T10:05:04;101523.66;;;18.29;100.00
62694;BME280;48759;52.544;13.418;2022-10-31T10:07:38;101523.44;;;18.43;100.00
62694;BME280;48759;52.544;13.418;2022-10-31T10:10:14;101526.84;;;18.45;100.00
62694;BME280;48759;52.544;13.418;2022-10-31T10:12:57;101510.28;;;18.61;100.00
62694;BME280;48759;52.544;13.418;2022-10-31T10:15:39;101518.88;;;19.06;100.00
62694;BME280;48759;52.544;13.418;2022-10-31T10:18:18;101512.47;;;18.94;100.00
62694;BME280;48759;52.544;13.418;2022-10-31T10:21:01;101508.72;;;18.77;100.00
62694;BME280;48759;52.544;13.418;2022-10-31T10:23:38;101502.78;;;19.20;100.00
62694;BME280;48759;52.544;13.418;2022-10-31T10:26:16;101508.44;;;19.14;100.00
62694;BME280;48759;52.544;13.418;2022-10-31T10:28:44;101511.34;;;19.42;100.00
62694;BME280;48759;52.544;13.418;2022-10-31T10:31:16;101515.38;;;19.23;100.00
62694;BME280;48759;52.544;13.418;2022-10-31T10:33:51;101504.09;;;19.18;100.00
62694;BME280;48759;52.544;13.418;2022-10-31T10:36:27;101502.28;;;19.35;100.00
62694;BME280;48759;52.544;13.418;2022-10-31T10:38:59;101498.31;;;19.59;100.00
62694;BME280;48759;52.544;13.418;2022-10-31T10:41:31;101502.91;;;19.65;100.00
62694;BME280;48759;52.544;13.418;2022-10-31T10:43:58;101497.63;;;19.80;100.00
62694;BME280;48759;52.544;13.418;2022-10-31T10:46:34;101489.25;;;20.09;100.00
62694;BME280;48759;52.544;13.418;2022-10-31T10:49:30;101492.84;;;20.21;100.00
62694;BME280;48759;52.544;13.418;2022-10-31T10:52:00;101479.25;;;19.96;100.00
62694;BME280;48759;52.544;13.418;2022-10-31T10:54:56;101487.47;;;19.63;100.00
62694;BME280;48759;52.544;13.418;2022-10-31T10:57:42;101486.84;;;19.72;100.00
62694;BME280;48759;52.544;13.418;2022-10-31T11:00:18;101495.22;;;20.29;99.13
62694;BME280;48759;52.544;13.418;2022-10-31T11:02:46;101499.88;;;20.40;99.23
62694;BME280;48759;52.544;13.418;2022-10-31T11:05:23;101494.16;;;20.02;100.00
62694;BME280;48759;52.544;13.418;2022-10-31T11:07:49;101497.69;;;19.97;100.00
62694;BME280;48759;52.544;13.418;2022-10-31T11:10:17;101494.94;;;20.14;100.00
62694;BME280;48759;52.544;13.418;2022-10-31T11:12:46;101494.44;;;20.50;98.96
62694;BME280;48759;52.544;13.418;2022-10-31T11:15:26;101486.16;;;19.94;100.00
62694;BME280;48759;52.544;13.418;2022-10-31T11:17:56;101482.84;;;20.42;99.47
62694;BME280;48759;52.544;13.418;2022-10-31T11:20:26;101480.81;;;20.54;97.73
62694;BME280;48759;52.544;13.418;2022-10-31T11:23:02;101478.84;;;20.04;100.00
62694;BME280;48759;52.544;13.418;2022-10-31T11:25:29;101474.59;;;20.02;100.00
62694;BME280;48759;52.544;13.418;2022-10-31T11:28:00;101468.25;;;20.40;100.00
62694;BME280;48759;52.544;13.418;2022-10-31T11:30:28;101479.66;;;20.67;97.80
62694;BME280;48759;52.544;13.418;2022-10-31T11:32:56;101483.50;;;20.99;95.03
62694;BME280;48759;52.544;13.418;2022-10-31T11:35:24;101465.03;;;20.48;99.55
62694;BME280;48759;52.544;13.418;2022-10-31T11:37:53;101475.97;;;21.21;94.20
62694;BME280;48759;52.544;13.418;2022-10-31T11:40:22;101472.69;;;20.36;99.91
62694;BME280;48759;52.544;13.418;2022-10-31T11:42:50;101466.41;;;20.45;100.00
62694;BME280;48759;52.544;13.418;2022-10-31T11:45:29;101472.97;;;20.68;98.88
62694;BME280;48759;52.544;13.418;2022-10-31T11:48:28;101471.97;;;20.12;100.00
62694;BME280;48759;52.544;13.418;2022-10-31T11:51:05;101480.97;;;20.14;100.00
62694;BME280;48759;52.544;13.418;2022-10-31T11:53:36;101482.09;;;20.30;100.00
62694;BME280;48759;52.544;13.418;2022-10-31T11:56:09;101475.09;;;20.99;96.95
62694;BME280;48759;52.544;13.418;2022-10-31T11:58:36;101475.94;;;20.16;100.00
62694;BME280;48759;52.544;13.418;2022-10-31T12:01:20;101474.28;;;20.32;100.00
62694;BME280;48759;52.544;13.418;2022-10-31T12:04:06;101472.50;;;20.92;97.94
62694;BME280;48759;52.544;13.418;2022-10-31T12:06:39;101469.28;;;20.84;97.45
62694;BME280;48759;52.544;13.418;2022-10-31T12:09:18;101469.06;;;20.69;98.71
62694;BME280;48759;52.544;13.418;2022-10-31T12:11:54;101461.31;;;20.42;100.00
62694;BME280;48759;52.544;13.418;2022-10-31T12:14:37;101469.25;;;20.17;100.00
62694;BME280;48759;52.544;13.418;2022-10-31T12:17:08;101464.56;;;20.68;100.00
62694;BME280;48759;52.544;13.418;2022-10-31T12:19:43;101453.69;;;20.21;100.00
62694;BME280;48759;52.544;13.418;2022-10-31T12:22:18;101459.63;;;20.41;100.00
62694;BME280;48759;52.544;13.418;2022-10-31T12:28:00;101456.84;;;20.75;100.00
62694;BME280;48759;52.544;13.418;2022-10-31T12:30:40;101453.38;;;21.06;97.53
62694;BME280;48759;52.544;13.418;2022-10-31T12:33:34;101445.75;;;20.46;100.00
62694;BME280;48759;52.544;13.418;2022-10-31T12:36:27;101439.25;;;20.79;97.51
62694;BME280;48759;52.544;13.418;2022-10-31T12:39:11;101442.50;;;20.71;100.00
62694;BME280;48759;52.544;13.418;2022-10-31T12:41:47;101436.88;;;21.75;92.12
62694;BME280;48759;52.544;13.418;2022-10-31T12:44:33;101436.16;;;20.97;97.63
62694;BME280;48759;52.544;13.418;2022-10-31T12:50:17;101430.31;;;20.99;97.00
62694;BME280;48759;52.544;13.418;2022-10-31T12:52:56;101435.56;;;20.07;100.00
62694;BME280;48759;52.544;13.418;2022-10-31T12:55:41;101439.97;;;20.53;100.00